Pudsey, United Kingdom
Current Conditions -  °F | °C
As of 9:50 AM on Tuesday 27 Jan 2015 (Local Time) from EGNM Reporting Station
Broken Clouds Broken Clouds  
Wind Chill: 36°   Ceiling: 1000
Heat Index: 43°   Visibility: 6mi
Dew Point: 41°   Wind: 13mph
Humidity: 93%   Direction: 270°W
Pressure: 30.24"   Gusts: NA
Location:  53.8°N, 1.66°W
Report Text: EGNM 270950Z 27011KT 220V300 9999 SCT008 BKN010 06/05 Q1024
Loading
Personal Weather Stations






























Interactive Weather Map New forecast layout! Learn more

10-Day Weather Forecast

Advertisements
Track Severe Weather on mobile